createdAt,value
2023-03-12T00:01:22.075Z,100.00
2023-03-12T00:03:49.224Z,100.00
2023-03-12T00:06:16.567Z,100.00
2023-03-12T00:08:43.276Z,100.00
2023-03-12T00:11:11.110Z,100.00
2023-03-12T00:13:37.749Z,100.00
2023-03-12T00:16:14.779Z,100.00
2023-03-12T00:18:41.631Z,100.00
2023-03-12T00:21:08.552Z,100.00
2023-03-12T00:23:35.188Z,100.00
2023-03-12T00:26:02.903Z,100.00
2023-03-12T00:28:29.591Z,100.00
2023-03-12T00:30:58.340Z,100.00
2023-03-12T00:33:25.950Z,100.00
2023-03-12T00:35:53.231Z,100.00
2023-03-12T00:38:20.397Z,100.00
2023-03-12T00:40:48.375Z,100.00
2023-03-12T00:43:14.967Z,100.00
2023-03-12T00:45:41.559Z,100.00
2023-03-12T00:48:08.717Z,100.00
2023-03-12T00:50:35.518Z,100.00
2023-03-12T00:53:02.230Z,100.00
2023-03-12T00:55:29.185Z,100.00
2023-03-12T00:57:55.872Z,100.00
2023-03-12T01:00:22.553Z,100.00
2023-03-12T01:02:49.218Z,100.00
2023-03-12T01:05:15.892Z,100.00
2023-03-12T01:07:42.681Z,100.00
2023-03-12T01:10:11.407Z,100.00
2023-03-12T01:12:38.035Z,100.00
2023-03-12T01:15:04.951Z,100.00
2023-03-12T01:17:31.624Z,100.00
2023-03-12T01:19:59.072Z,100.00
2023-03-12T01:22:25.845Z,100.00
2023-03-12T01:24:52.522Z,100.00
2023-03-12T01:27:20.441Z,100.00
2023-03-12T01:29:47.113Z,100.00
2023-03-12T01:32:13.837Z,100.00
2023-03-12T01:34:40.532Z,100.00
2023-03-12T01:37:07.404Z,100.00
2023-03-12T01:39:34.106Z,100.00
2023-03-12T01:42:01.889Z,100.00
2023-03-12T01:44:28.802Z,100.00
2023-03-12T01:46:55.671Z,100.00
2023-03-12T01:49:26.978Z,100.00
2023-03-12T01:52:09.053Z,100.00
2023-03-12T01:54:47.631Z,100.00
2023-03-12T01:57:27.209Z,100.00
2023-03-12T01:59:57.007Z,100.00
2023-03-12T02:02:27.157Z,100.00
2023-03-12T02:05:04.264Z,100.00
2023-03-12T02:07:31.350Z,100.00
2023-03-12T02:09:57.949Z,100.00
2023-03-12T02:12:24.564Z,100.00
2023-03-12T02:14:51.512Z,100.00
2023-03-12T02:17:19.022Z,100.00
2023-03-12T02:19:55.836Z,100.00
2023-03-12T02:22:22.575Z,100.00
2023-03-12T02:25:02.083Z,100.00
2023-03-12T02:27:28.720Z,100.00
2023-03-12T02:29:55.299Z,100.00
2023-03-12T02:32:24.569Z,100.00
2023-03-12T02:34:51.252Z,100.00
2023-03-12T02:37:18.875Z,100.00
2023-03-12T02:39:49.538Z,100.00
2023-03-12T02:42:16.245Z,100.00
2023-03-12T02:44:43.839Z,100.00
2023-03-12T02:47:10.796Z,100.00
2023-03-12T02:49:37.392Z,100.00
2023-03-12T02:52:04.324Z,100.00
2023-03-12T02:54:31.035Z,100.00
2023-03-12T02:56:58.109Z,100.00
2023-03-12T02:59:26.850Z,100.00
2023-03-12T03:01:57.245Z,100.00
2023-03-12T03:04:24.300Z,100.00
2023-03-12T03:06:51.242Z,100.00
2023-03-12T03:09:18.328Z,100.00
2023-03-12T03:11:45.273Z,100.00
2023-03-12T03:14:12.845Z,100.00
2023-03-12T03:16:39.715Z,100.00
2023-03-12T03:19:06.618Z,100.00
2023-03-12T03:21:33.266Z,100.00
2023-03-12T03:23:59.895Z,100.00
2023-03-12T03:26:26.781Z,100.00
2023-03-12T03:28:53.526Z,100.00
2023-03-12T03:31:20.405Z,100.00
2023-03-12T03:33:47.317Z,100.00
2023-03-12T03:36:14.937Z,100.00
2023-03-12T03:38:49.313Z,100.00
2023-03-12T03:41:20.215Z,100.00
2023-03-12T03:43:47.710Z,100.00
2023-03-12T03:46:16.826Z,100.00
2023-03-12T03:48:47.873Z,100.00
2023-03-12T03:51:15.340Z,100.00
2023-03-12T03:53:45.420Z,100.00
2023-03-12T03:56:14.882Z,100.00
2023-03-12T03:58:46.301Z,100.00
2023-03-12T04:01:14.321Z,100.00
2023-03-12T04:03:41.845Z,100.00
2023-03-12T04:06:09.155Z,100.00
2023-03-12T04:08:37.259Z,100.00
2023-03-12T04:11:10.805Z,100.00
2023-03-12T04:13:37.581Z,100.00
2023-03-12T04:16:04.870Z,100.00
2023-03-12T04:18:32.365Z,100.00
2023-03-12T04:21:00.559Z,100.00
2023-03-12T04:23:27.576Z,100.00
2023-03-12T04:25:54.713Z,100.00
2023-03-12T04:28:21.501Z,100.00
2023-03-12T04:31:01.882Z,100.00
2023-03-12T04:33:36.424Z,100.00
2023-03-12T04:36:03.968Z,100.00
2023-03-12T04:38:30.947Z,100.00
2023-03-12T04:41:01.987Z,100.00
2023-03-12T04:43:29.478Z,100.00
2023-03-12T04:45:56.404Z,100.00
2023-03-12T04:48:23.647Z,100.00
2023-03-12T04:50:51.603Z,100.00
2023-03-12T04:53:18.641Z,100.00
2023-03-12T04:55:46.156Z,100.00
2023-03-12T04:58:12.984Z,100.00
2023-03-12T05:00:40.574Z,100.00
2023-03-12T05:03:07.886Z,100.00
2023-03-12T05:05:35.804Z,100.00
2023-03-12T05:08:03.975Z,100.00
2023-03-12T05:10:32.058Z,100.00
2023-03-12T05:12:59.038Z,100.00
2023-03-12T05:15:25.766Z,100.00
2023-03-12T05:17:54.281Z,100.00
2023-03-12T05:20:21.374Z,100.00
2023-03-12T05:22:48.640Z,100.00
2023-03-12T05:25:15.608Z,100.00
2023-03-12T05:27:42.257Z,100.00
2023-03-12T05:30:09.782Z,100.00
2023-03-12T05:32:38.071Z,100.00
2023-03-12T05:35:05.443Z,100.00
2023-03-12T05:37:32.523Z,100.00
2023-03-12T05:40:00.676Z,100.00
2023-03-12T05:42:27.541Z,100.00
2023-03-12T05:44:55.675Z,100.00
2023-03-12T05:47:22.982Z,100.00
2023-03-12T05:49:49.662Z,100.00
2023-03-12T05:52:16.405Z,100.00
2023-03-12T05:54:43.612Z,100.00
2023-03-12T05:57:10.614Z,100.00
2023-03-12T05:59:37.341Z,100.00
2023-03-12T06:02:05.445Z,100.00
2023-03-12T06:04:33.165Z,100.00
2023-03-12T06:07:00.181Z,100.00
2023-03-12T06:09:27.064Z,100.00
2023-03-12T06:11:53.806Z,100.00
2023-03-12T06:14:20.456Z,100.00
2023-03-12T06:16:47.747Z,100.00
2023-03-12T06:19:14.508Z,100.00
2023-03-12T06:21:43.189Z,100.00
2023-03-12T06:24:10.451Z,100.00
2023-03-12T06:26:44.240Z,100.00
2023-03-12T06:29:10.887Z,100.00
2023-03-12T06:31:39.651Z,100.00
2023-03-12T06:34:06.396Z,100.00
2023-03-12T06:36:32.990Z,100.00
2023-03-12T06:38:59.665Z,100.00
2023-03-12T06:41:26.297Z,100.00
2023-03-12T06:43:52.915Z,100.00
2023-03-12T06:46:21.731Z,100.00
2023-03-12T06:48:48.902Z,100.00
2023-03-12T06:51:16.015Z,100.00
2023-03-12T06:53:42.774Z,100.00
2023-03-12T06:56:09.936Z,100.00
2023-03-12T06:58:36.707Z,100.00
2023-03-12T07:01:03.545Z,100.00
2023-03-12T07:03:30.210Z,100.00
2023-03-12T07:05:57.126Z,100.00
2023-03-12T07:08:23.900Z,100.00
2023-03-12T07:10:50.548Z,100.00
2023-03-12T07:13:17.164Z,100.00
2023-03-12T07:15:46.027Z,100.00
2023-03-12T07:18:12.799Z,100.00
2023-03-12T07:20:40.518Z,100.00
2023-03-12T07:23:07.111Z,100.00
2023-03-12T07:25:37.538Z,100.00
2023-03-12T07:28:04.392Z,100.00
2023-03-12T07:30:33.551Z,100.00
2023-03-12T07:33:01.820Z,100.00
2023-03-12T07:35:29.050Z,100.00
2023-03-12T07:37:55.768Z,100.00
2023-03-12T07:40:22.884Z,100.00
2023-03-12T07:42:50.528Z,100.00
2023-03-12T07:45:17.368Z,100.00
2023-03-12T07:47:44.709Z,100.00
2023-03-12T07:50:11.903Z,100.00
2023-03-12T07:52:38.538Z,100.00
2023-03-12T07:55:05.608Z,100.00
2023-03-12T07:57:32.329Z,100.00
2023-03-12T07:59:59.053Z,100.00
2023-03-12T08:02:25.804Z,100.00
2023-03-12T08:04:52.598Z,100.00
2023-03-12T08:07:19.290Z,100.00
2023-03-12T08:09:45.989Z,100.00
2023-03-12T08:12:12.674Z,100.00
2023-03-12T08:14:39.402Z,100.00
2023-03-12T08:17:06.077Z,100.00
2023-03-12T08:19:32.867Z,100.00
2023-03-12T08:21:59.511Z,100.00
2023-03-12T08:24:26.133Z,100.00
2023-03-12T08:26:53.050Z,100.00
2023-03-12T08:29:20.291Z,100.00
2023-03-12T08:32:03.315Z,100.00
2023-03-12T08:34:30.955Z,100.00
2023-03-12T08:36:57.744Z,100.00
2023-03-12T08:39:24.392Z,100.00
2023-03-12T08:41:55.278Z,100.00
2023-03-12T08:44:22.828Z,100.00
2023-03-12T08:46:49.685Z,100.00
2023-03-12T08:49:16.414Z,100.00
2023-03-12T08:51:43.109Z,100.00
2023-03-12T08:54:09.747Z,100.00
2023-03-12T08:56:42.445Z,100.00
2023-03-12T08:59:12.128Z,100.00
2023-03-12T09:01:40.262Z,100.00
2023-03-12T09:04:08.525Z,100.00
2023-03-12T09:06:35.520Z,100.00
2023-03-12T09:10:12.446Z,100.00
2023-03-12T09:12:40.298Z,100.00
2023-03-12T09:15:09.338Z,100.00
2023-03-12T09:17:37.241Z,100.00
2023-03-12T09:20:08.395Z,100.00
2023-03-12T09:22:37.131Z,100.00
2023-03-12T09:25:05.084Z,100.00
2023-03-12T09:27:37.350Z,100.00
2023-03-12T09:30:06.672Z,100.00
2023-03-12T09:32:34.562Z,100.00
2023-03-12T09:35:02.401Z,100.00
2023-03-12T09:37:32.346Z,100.00
2023-03-12T09:40:00.136Z,100.00
2023-03-12T09:42:30.933Z,100.00
2023-03-12T09:45:01.524Z,100.00
2023-03-12T09:47:30.671Z,99.10
2023-03-12T09:50:00.312Z,97.16
2023-03-12T09:52:30.389Z,93.96
2023-03-12T09:55:00.511Z,93.90
2023-03-12T09:57:28.999Z,90.82
2023-03-12T09:59:56.800Z,90.25
2023-03-12T10:02:51.589Z,92.97
2023-03-12T10:05:21.051Z,95.21
2023-03-12T10:07:49.922Z,94.86
2023-03-12T10:10:22.613Z,89.74
2023-03-12T10:13:00.819Z,91.40
2023-03-12T10:15:33.390Z,89.92
2023-03-12T10:18:10.248Z,88.15
2023-03-12T10:21:04.564Z,88.68
2023-03-12T10:23:38.855Z,88.53
2023-03-12T10:26:07.887Z,85.77
2023-03-12T10:28:37.202Z,88.14
2023-03-12T10:31:07.406Z,86.97
2023-03-12T10:33:42.081Z,87.28
2023-03-12T10:36:14.186Z,90.52
2023-03-12T10:38:42.128Z,89.17
2023-03-12T10:41:15.384Z,88.74
2023-03-12T10:43:43.225Z,87.23
2023-03-12T10:46:26.084Z,89.09
2023-03-12T10:49:11.805Z,88.98
2023-03-12T10:51:54.445Z,90.24
2023-03-12T10:54:22.952Z,89.34
2023-03-12T10:56:51.617Z,91.07
2023-03-12T10:59:22.172Z,89.99
2023-03-12T11:01:51.704Z,90.77
2023-03-12T11:04:23.055Z,89.69
2023-03-12T11:07:08.129Z,90.27
2023-03-12T11:09:36.053Z,93.51
2023-03-12T11:12:04.239Z,93.13
2023-03-12T11:14:32.049Z,95.33
2023-03-12T11:16:59.833Z,93.79
2023-03-12T11:19:29.942Z,93.46
2023-03-12T11:21:58.682Z,95.97
2023-03-12T11:24:26.476Z,94.33
2023-03-12T11:26:56.689Z,97.58
2023-03-12T11:29:27.407Z,100.00
2023-03-12T11:32:01.641Z,100.00
2023-03-12T11:34:32.301Z,100.00
2023-03-12T11:37:05.945Z,100.00
2023-03-12T11:39:37.729Z,100.00
2023-03-12T11:42:12.125Z,100.00
2023-03-12T11:44:42.482Z,100.00
2023-03-12T11:47:20.814Z,100.00
2023-03-12T11:49:59.561Z,100.00
2023-03-12T11:52:30.328Z,100.00
2023-03-12T11:55:09.303Z,100.00
2023-03-12T11:57:40.377Z,100.00
2023-03-12T12:00:13.404Z,100.00
2023-03-12T12:03:13.582Z,100.00
2023-03-12T12:05:46.414Z,100.00
2023-03-12T12:08:24.040Z,100.00
2023-03-12T12:10:55.196Z,100.00
2023-03-12T12:13:25.336Z,100.00
2023-03-12T12:15:57.517Z,100.00
2023-03-12T12:18:36.992Z,100.00
2023-03-12T12:21:09.950Z,100.00
2023-03-12T12:23:43.677Z,100.00
2023-03-12T12:26:11.497Z,100.00
2023-03-12T12:29:02.242Z,100.00
2023-03-12T12:31:32.095Z,100.00
2023-03-12T12:34:07.836Z,100.00
2023-03-12T12:36:37.057Z,100.00
2023-03-12T12:39:06.684Z,100.00
2023-03-12T12:41:35.810Z,100.00
2023-03-12T12:44:05.629Z,100.00
2023-03-12T12:46:34.719Z,100.00
2023-03-12T12:49:04.408Z,100.00
2023-03-12T12:51:34.091Z,100.00
2023-03-12T12:54:05.432Z,100.00
2023-03-12T12:56:34.673Z,100.00
2023-03-12T12:59:10.083Z,100.00
2023-03-12T13:01:38.074Z,100.00
2023-03-12T13:04:07.411Z,100.00
2023-03-12T13:06:56.637Z,100.00
2023-03-12T13:09:36.406Z,100.00
2023-03-12T13:12:15.012Z,100.00
2023-03-12T13:14:43.058Z,100.00
2023-03-12T13:17:22.173Z,100.00
2023-03-12T13:19:55.425Z,100.00
2023-03-12T13:22:32.308Z,100.00
2023-03-12T13:25:08.715Z,100.00
2023-03-12T13:27:38.905Z,100.00
2023-03-12T13:30:44.164Z,100.00
2023-03-12T13:33:14.163Z,100.00
2023-03-12T13:35:42.128Z,100.00
2023-03-12T13:38:13.557Z,100.00
2023-03-12T13:40:56.256Z,100.00
2023-03-12T13:43:52.728Z,100.00
2023-03-12T13:46:45.763Z,100.00
2023-03-12T13:49:16.531Z,100.00
2023-03-12T13:51:53.014Z,100.00
2023-03-12T13:54:21.407Z,100.00
2023-03-12T13:56:58.442Z,100.00
2023-03-12T14:02:25.622Z,100.00
2023-03-12T14:04:53.630Z,100.00
2023-03-12T14:07:37.059Z,100.00
2023-03-12T14:10:11.024Z,100.00
2023-03-12T14:12:44.197Z,100.00
2023-03-12T14:15:24.909Z,100.00
2023-03-12T14:17:57.228Z,100.00
2023-03-12T14:20:25.769Z,100.00
2023-03-12T14:22:55.825Z,100.00
2023-03-12T14:25:27.447Z,100.00
2023-03-12T14:27:56.642Z,100.00
2023-03-12T14:30:25.077Z,100.00
2023-03-12T14:32:54.541Z,100.00
2023-03-12T14:35:23.347Z,100.00
2023-03-12T14:37:54.235Z,100.00
2023-03-12T14:40:24.043Z,100.00
2023-03-12T14:42:51.891Z,100.00
2023-03-12T14:45:23.019Z,100.00
2023-03-12T14:47:54.121Z,100.00
2023-03-12T14:50:22.977Z,100.00
2023-03-12T14:52:51.027Z,100.00
2023-03-12T14:55:21.577Z,100.00
2023-03-12T14:57:49.568Z,100.00
2023-03-12T15:00:25.466Z,100.00
2023-03-12T15:02:54.022Z,100.00
2023-03-12T15:05:21.871Z,100.00
2023-03-12T15:07:50.278Z,100.00
2023-03-12T15:10:21.536Z,100.00
2023-03-12T15:12:49.559Z,100.00
2023-03-12T15:15:29.062Z,100.00
2023-03-12T15:17:56.831Z,100.00
2023-03-12T15:20:24.879Z,100.00
2023-03-12T15:22:52.944Z,100.00
2023-03-12T15:25:25.806Z,100.00
2023-03-12T15:28:04.765Z,100.00
2023-03-12T15:30:34.292Z,100.00
2023-03-12T15:33:10.150Z,100.00
2023-03-12T15:35:39.136Z,100.00
2023-03-12T15:38:07.197Z,100.00
2023-03-12T15:40:35.055Z,100.00
2023-03-12T15:43:03.908Z,100.00
2023-03-12T15:45:36.692Z,100.00
2023-03-12T15:48:15.756Z,100.00
2023-03-12T15:50:44.632Z,100.00
2023-03-12T15:53:26.483Z,100.00
2023-03-12T15:56:04.345Z,100.00
2023-03-12T15:58:32.922Z,100.00
2023-03-12T16:01:12.431Z,100.00
2023-03-12T16:03:40.568Z,100.00
2023-03-12T16:06:12.554Z,100.00
2023-03-12T16:08:43.604Z,100.00
2023-03-12T16:11:17.735Z,100.00
2023-03-12T16:13:46.167Z,100.00
2023-03-12T16:16:15.680Z,100.00
2023-03-12T16:18:43.992Z,100.00
2023-03-12T16:21:12.803Z,100.00
2023-03-12T16:23:41.168Z,100.00
2023-03-12T16:26:09.074Z,100.00
2023-03-12T16:28:36.900Z,100.00
2023-03-12T16:31:10.700Z,100.00
2023-03-12T16:33:40.147Z,100.00
2023-03-12T16:36:13.513Z,100.00
2023-03-12T16:38:41.948Z,100.00
2023-03-12T16:41:11.549Z,100.00
2023-03-12T16:43:39.312Z,100.00
2023-03-12T16:46:08.808Z,100.00
2023-03-12T16:48:36.803Z,100.00
2023-03-12T16:51:06.292Z,100.00
2023-03-12T16:53:34.108Z,100.00
2023-03-12T16:56:02.233Z,100.00
2023-03-12T16:58:30.117Z,100.00
2023-03-12T17:00:58.000Z,100.00
2023-03-12T17:03:29.708Z,100.00
2023-03-12T17:05:59.912Z,100.00
2023-03-12T17:08:29.341Z,100.00
2023-03-12T17:10:57.596Z,100.00
2023-03-12T17:13:26.768Z,100.00
2023-03-12T17:15:54.838Z,100.00
2023-03-12T17:18:23.178Z,100.00
2023-03-12T17:20:52.927Z,100.00
2023-03-12T17:23:20.747Z,100.00
2023-03-12T17:25:50.049Z,100.00
2023-03-12T17:33:01.809Z,100.00
2023-03-12T17:36:06.033Z,100.00
2023-03-12T17:39:05.975Z,100.00
2023-03-12T17:41:55.202Z,100.00
2023-03-12T17:44:36.919Z,100.00
2023-03-12T17:47:16.242Z,100.00
2023-03-12T17:49:51.266Z,100.00
2023-03-12T17:52:42.707Z,100.00
2023-03-12T17:55:19.946Z,100.00
2023-03-12T17:58:05.764Z,100.00
2023-03-12T18:01:07.797Z,100.00
2023-03-12T18:07:22.187Z,100.00
2023-03-12T18:09:51.730Z,100.00
2023-03-12T18:12:38.111Z,100.00
2023-03-12T18:15:20.858Z,100.00
2023-03-12T18:18:03.930Z,100.00
2023-03-12T18:21:06.844Z,100.00
2023-03-12T18:24:18.146Z,100.00
2023-03-12T18:27:00.951Z,100.00
2023-03-12T18:29:38.935Z,100.00
2023-03-12T18:32:59.417Z,100.00
2023-03-12T19:09:20.590Z,100.00
2023-03-12T19:19:21.660Z,100.00
2023-03-12T19:21:49.455Z,100.00
2023-03-12T19:24:17.201Z,100.00
2023-03-12T19:26:45.096Z,100.00
2023-03-12T19:29:13.003Z,100.00
2023-03-12T19:31:40.915Z,100.00
2023-03-12T19:34:08.873Z,100.00
2023-03-12T19:36:37.914Z,100.00
2023-03-12T19:39:15.299Z,100.00
2023-03-12T19:41:48.147Z,100.00
2023-03-12T19:44:15.891Z,100.00
2023-03-12T19:46:43.716Z,100.00
2023-03-12T19:49:11.689Z,100.00
2023-03-12T19:51:41.353Z,100.00
2023-03-12T19:54:09.289Z,100.00
2023-03-12T19:56:37.155Z,100.00
2023-03-12T19:59:04.953Z,100.00
2023-03-12T20:01:32.749Z,100.00
2023-03-12T20:04:00.585Z,100.00
2023-03-12T20:06:28.307Z,100.00
2023-03-12T20:08:57.429Z,100.00
2023-03-12T20:11:25.197Z,100.00
2023-03-12T20:13:52.862Z,100.00
2023-03-12T20:16:20.694Z,100.00
2023-03-12T20:18:48.469Z,100.00
2023-03-12T20:21:16.142Z,100.00
2023-03-12T20:23:43.802Z,100.00
2023-03-12T20:26:12.874Z,100.00
2023-03-12T20:28:40.602Z,100.00
2023-03-12T20:31:09.712Z,100.00
2023-03-12T20:33:37.514Z,100.00
2023-03-12T20:36:06.819Z,100.00
2023-03-12T20:38:34.676Z,100.00
2023-03-12T20:41:02.383Z,100.00
2023-03-12T20:43:31.641Z,100.00
2023-03-12T20:45:59.475Z,100.00
2023-03-12T20:48:27.417Z,100.00
2023-03-12T20:50:55.688Z,100.00
2023-03-12T20:53:23.467Z,100.00
2023-03-12T20:55:51.233Z,100.00
2023-03-12T20:58:18.995Z,100.00
2023-03-12T21:00:48.153Z,100.00
2023-03-12T21:03:16.958Z,100.00
2023-03-12T21:05:44.842Z,100.00
2023-03-12T21:08:12.783Z,100.00
2023-03-12T21:10:40.638Z,100.00
2023-03-12T21:13:08.485Z,100.00
2023-03-12T21:15:37.670Z,100.00
2023-03-12T21:18:06.879Z,100.00
2023-03-12T21:20:35.055Z,100.00
2023-03-12T21:23:03.026Z,100.00
2023-03-12T21:25:33.362Z,100.00
2023-03-12T21:28:01.286Z,100.00
2023-03-12T21:30:29.034Z,100.00
2023-03-12T21:32:56.925Z,100.00
2023-03-12T21:35:27.411Z,100.00
2023-03-12T21:37:56.202Z,100.00
2023-03-12T21:40:24.072Z,100.00
2023-03-12T21:42:51.849Z,100.00
2023-03-12T21:45:19.844Z,100.00
2023-03-12T21:47:47.677Z,100.00
2023-03-12T21:50:15.500Z,100.00
2023-03-12T21:52:49.061Z,100.00
2023-03-12T21:55:17.152Z,100.00
2023-03-12T21:57:45.266Z,100.00
2023-03-12T22:00:14.161Z,100.00
2023-03-12T22:02:42.184Z,100.00
2023-03-12T22:05:10.383Z,100.00
2023-03-12T22:07:38.350Z,100.00
2023-03-12T22:10:11.675Z,100.00
2023-03-12T22:12:39.935Z,100.00
2023-03-12T22:15:09.072Z,100.00
2023-03-12T22:17:36.828Z,100.00
2023-03-12T22:20:06.318Z,100.00
2023-03-12T22:22:34.170Z,100.00
2023-03-12T22:25:01.884Z,100.00
2023-03-12T22:27:31.170Z,100.00
2023-03-12T22:29:59.021Z,100.00
2023-03-12T22:32:27.647Z,100.00
2023-03-12T22:34:55.572Z,100.00
2023-03-12T22:37:23.277Z,100.00
2023-03-12T22:39:51.936Z,100.00
2023-03-12T22:42:19.750Z,100.00
2023-03-12T22:44:48.854Z,100.00
2023-03-12T22:47:16.550Z,100.00
2023-03-12T22:49:44.418Z,100.00
2023-03-12T22:52:12.100Z,100.00
2023-03-12T22:54:39.797Z,100.00
2023-03-12T22:57:07.519Z,100.00
2023-03-12T22:59:35.240Z,100.00
2023-03-12T23:02:04.405Z,100.00
2023-03-12T23:04:32.204Z,100.00
2023-03-12T23:07:13.391Z,100.00
2023-03-12T23:09:41.832Z,100.00
2023-03-12T23:12:09.792Z,100.00
2023-03-12T23:14:37.513Z,100.00
2023-03-12T23:17:06.901Z,100.00
2023-03-12T23:19:34.683Z,100.00
2023-03-12T23:22:02.400Z,100.00
2023-03-12T23:24:30.950Z,100.00
2023-03-12T23:26:58.703Z,100.00
2023-03-12T23:29:26.456Z,100.00
2023-03-12T23:31:54.156Z,100.00
2023-03-12T23:34:23.370Z,100.00
2023-03-12T23:36:51.199Z,100.00
2023-03-12T23:39:18.896Z,100.00
2023-03-12T23:41:46.590Z,100.00
2023-03-12T23:44:14.284Z,100.00
2023-03-12T23:46:44.998Z,100.00
2023-03-12T23:49:12.903Z,100.00
2023-03-12T23:51:41.962Z,100.00
2023-03-12T23:54:09.709Z,100.00
2023-03-12T23:56:38.191Z,100.00
2023-03-12T23:59:06.354Z,100.00
